• Join FlightAware (Why Join?)
  • Login
  • US Flag 
09:38PM EDT


 

Airport Tracker/Info


-or-


 

Live Flight TrackerFlight Track Log ✈ FIN666 ✈ 27-Jan-2014 ✈ EKCH / CPH - EFHK / HEL

Flight Track Log - Related Links

Times and Time Zones

All times are in EST time to prevent confusion due to time zone crossing. See the FIN666 flight status page for this flight to view local times or setup timezone preferences in your user account.

Time Position Orientation Groundspeed Altitude Reporting Facility
EST Latitude Longitude Course Direction KTS MPH feet Rate Location/Type
07:49AM 55.8966 13.2332 49° Northeast  Level Estimated
07:50AM 55.9658 13.3788 50° Northeast  Level Estimated
07:51AM 56.0358 13.5269 50° Northeast  Level Estimated
07:52AM 56.1056 13.6755 50° Northeast  Level Estimated
07:53AM 56.1753 13.8247 50° Northeast  Level Estimated
07:54AM 56.2447 13.9744 50° Northeast  Level Estimated
07:55AM 56.3140 14.1247 50° Northeast  Level Estimated
07:56AM 56.3831 14.2755 50° Northeast  Level Estimated
07:57AM 56.4520 14.4269 50° Northeast  Level Estimated
07:58AM 56.5207 14.5788 51° Northeast  Level Estimated
07:59AM 56.5893 14.7312 51° Northeast  Level Estimated
08:00AM 56.6576 14.8842 51° Northeast  Level Estimated
08:01AM 56.7258 15.0378 51° Northeast  Level Estimated
08:02AM 56.7938 15.1919 51° Northeast  Level Estimated
08:03AM 56.8615 15.3466 51° Northeast  Level Estimated
08:04AM 56.9291 15.5018 51° Northeast  Level Estimated
08:05AM 56.9965 15.6576 52° Northeast  Level Estimated
08:06AM 57.0637 15.8140 52° Northeast  Level Estimated
08:07AM 57.1307 15.9709 52° Northeast  Level Estimated
08:08AM 57.1976 16.1284 52° Northeast  Level Estimated
08:09AM 57.2642 16.2865 52° Northeast  Level Estimated
08:10AM 57.3306 16.4451 52° Northeast  Level Estimated
08:11AM 57.3968 16.6043 52° Northeast  Level Estimated
08:12AM 57.4647 16.7686 52° Northeast  Level Estimated
08:13AM 57.5323 16.9334 53° Northeast  Level Estimated
08:14AM 57.5997 17.0989 53° Northeast  Level Estimated
08:15AM 57.6669 17.2650 53° Northeast  Level Estimated
08:16AM 57.7339 17.4317 53° Northeast  Level Estimated
08:17AM 57.8007 17.5990 53° Northeast  Level Estimated
08:18AM 57.8672 17.7669 53° Northeast  Level Estimated
08:19AM 57.9335 17.9355 53° Northeast  Level Estimated
08:20AM 57.9996 18.1046 54° Northeast  Level Estimated
08:21AM 58.0655 18.2744 54° Northeast  Level Estimated
08:22AM 58.1311 18.4449 54° Northeast  Level Estimated
08:23AM 58.1965 18.6159 54° Northeast  Level Estimated
08:24AM 58.2636 18.7925 54° Northeast  Level Estimated
08:25AM 58.3304 18.9698 54° Northeast  Level Estimated
08:26AM 58.3969 19.1477 54° Northeast  Level Estimated
08:27AM 58.4632 19.3263 55° Northeast  Level Estimated
08:28AM 58.5293 19.5056 55° Northeast  Level Estimated
08:29AM 58.5951 19.6855 55° Northeast  Level Estimated
08:30AM 58.6606 19.8662 55° Northeast  Level Estimated
08:31AM 58.7259 20.0475 55° Northeast  Level Estimated
08:32AM 58.7910 20.2295 55° Northeast  Level Estimated
08:33AM 58.8558 20.4121 56° Northeast  Level Estimated
08:34AM 58.9203 20.5955 56° Northeast  Level Estimated
08:35AM 58.9846 20.7795 56° Northeast  Level Estimated
08:36AM 59.0486 20.9643 56° Northeast  Level Estimated
08:37AM 59.1123 21.1497 56° Northeast  Level Estimated
08:38AM 59.1758 21.3358 56° Northeast  Level Estimated
08:39AM 59.2390 21.5226 56° Northeast  Level Estimated
08:40AM 59.3019 21.7101 57° Northeast  Level Estimated
08:41AM 59.3646 21.8983 57° Northeast  Level Estimated
08:42AM 59.4270 22.0871 57° Northeast  Level Estimated
08:43AM 59.4891 22.2767 57° Northeast  Level Estimated
08:44AM 59.5510 22.4670 57° Northeast  Level Estimated
08:45AM 59.6125 22.6579 57° Northeast  Level Estimated
08:46AM 59.6738 22.8496 58° Northeast  Level Estimated
08:47AM 59.7348 23.0420 58° Northeast  Level Estimated
08:48AM 59.7956 23.2351 58° Northeast  Level Estimated
08:49AM 59.8560 23.4288 58° Northeast  Level Estimated
08:50AM 59.9162 23.6233 58° Northeast  Level Estimated
08:51AM 59.9761 23.8185 58° Northeast  Level Estimated
08:52AM 60.0356 24.0144 59° Northeast  Level Estimated
08:53AM 60.0995 24.2261 59° Northeast  Level Estimated
08:54AM 60.1630 24.4387 59° Northeast  Level Estimated
08:55AM 60.2261 24.6521 59° Northeast  Level Estimated
08:56AM 60.2890 24.8663 59° Northeast  Level Estimated
08:57AM 60.3172 24.9633 60° Northeast  Level Estimated
08:58AM 60.3172 24.9633 37° Northeast  Level Estimated
08:59AM 60.3172 24.9633 37° Northeast  Level Estimated
09:00AM 60.3172 24.9633 37° Northeast  Level Estimated
09:01AM 60.3172 24.9633 37° Northeast  Level Estimated
09:02AM 60.3172 24.9633 37° Northeast  Level Estimated
09:03AM 60.3172 24.9633 37° Northeast  Level Estimated
09:04AM 60.3172 24.9633 37° Northeast  Level Estimated
09:05AM 60.3172 24.9633 37° Northeast  Level Estimated
09:06AM 60.3172 24.9633 37° Northeast  Level Estimated